Time;durP1;ratioP1;P1;durP2;ratioP2;P2;SDS_P1;SDS_P2;PMS_P1;PMS_P2;Temp;Humidity;BMP_temperature;BMP_pressure;BME280_temperature;BME280_humidity;BME280_pressure;Samples;Min_cycle;Max_cycle;Signal;HPM_P1;HPM_P2
2022/05/05 00:01:15;;;;;;;6.28;5.68;;;14.20;99.90;;;;;;5095950;28;20244;-68
2022/05/05 00:03:40;;;;;;;6.93;5.07;;;14.20;99.90;;;;;;5096117;28;20042;-68
2022/05/05 00:06:06;;;;;;;5.90;5.30;;;14.10;99.90;;;;;;5077712;28;20106;-68
2022/05/05 00:08:32;;;;;;;9.30;5.25;;;14.10;99.90;;;;;;5077884;28;20492;-68
2022/05/05 00:16:27;;;;;;;6.70;5.38;;;14.10;99.90;;;;;;5095753;28;20067;-67
2022/05/05 00:18:52;;;;;;;7.45;5.72;;;14.00;99.90;;;;;;5095238;28;20028;-66
2022/05/05 00:21:18;;;;;;;6.13;5.47;;;14.00;99.90;;;;;;5116881;22;20054;-64
2022/05/05 00:23:43;;;;;;;8.53;5.40;;;14.00;99.90;;;;;;5116046;28;20024;-65
2022/05/05 00:26:09;;;;;;;8.30;6.00;;;13.90;99.90;;;;;;5115672;28;20028;-66
2022/05/05 00:28:35;;;;;;;9.83;6.23;;;13.90;99.90;;;;;;5115388;28;20313;-64
2022/05/05 00:31:00;;;;;;;6.57;5.83;;;13.90;99.90;;;;;;5115189;28;20024;-64
2022/05/05 00:33:26;;;;;;;8.57;6.87;;;13.90;99.90;;;;;;5115202;28;20249;-65
2022/05/05 00:35:52;;;;;;;10.60;6.88;;;13.90;99.90;;;;;;5096903;28;20106;-64
2022/05/05 00:38:17;;;;;;;7.67;6.47;;;14.00;99.90;;;;;;5115196;28;20028;-65
2022/05/05 00:40:43;;;;;;;6.88;6.03;;;14.00;99.90;;;;;;5115243;28;20059;-64
2022/05/05 00:43:09;;;;;;;7.40;6.65;;;14.00;99.90;;;;;;5115283;28;20470;-64
2022/05/05 00:45:35;;;;;;;;;;;13.90;99.90;;;;;;5115120;28;20497;-64
2022/05/05 00:48:08;;;;;;;8.40;6.07;;;13.90;99.90;;;;;;5114855;28;19911;-65
2022/05/05 00:50:35;;;;;;;10.68;7.40;;;13.90;99.90;;;;;;5115002;28;20479;-65
2022/05/05 00:53:01;;;;;;;11.05;8.15;;;13.90;99.90;;;;;;5115416;28;20042;-65
2022/05/05 00:55:31;;;;;;;8.48;7.30;;;13.90;99.90;;;;;;5115106;28;20554;-65
2022/05/05 00:57:56;;;;;;;7.82;6.30;;;13.90;99.90;;;;;;5096518;28;20038;-65
2022/05/05 01:00:22;;;;;;;10.77;8.23;;;13.80;99.90;;;;;;5114845;28;20119;-65
2022/05/05 01:02:49;;;;;;;9.18;8.13;;;13.80;99.90;;;;;;5096449;28;20030;-65
2022/05/05 01:05:15;;;;;;;10.75;7.30;;;13.80;99.90;;;;;;5096278;28;20077;-65
2022/05/05 01:07:40;;;;;;;10.55;7.60;;;13.80;99.90;;;;;;5114753;28;20016;-64
2022/05/05 01:10:06;;;;;;;11.63;7.97;;;13.80;99.90;;;;;;5114497;28;20460;-64
2022/05/05 01:12:33;;;;;;;10.93;7.03;;;13.80;99.90;;;;;;5114627;28;20044;-64
2022/05/05 01:15:00;;;;;;;8.43;6.47;;;13.70;99.90;;;;;;5114459;28;20064;-64
2022/05/05 01:17:28;;;;;;;7.38;6.65;;;13.70;99.90;;;;;;5096050;28;20020;-65
2022/05/05 01:19:54;;;;;;;10.70;6.97;;;13.60;99.90;;;;;;5114233;28;20075;-64
2022/05/05 01:22:20;;;;;;;10.77;6.32;;;13.60;99.90;;;;;;5114535;28;20163;-65
2022/05/05 01:30:14;;;;;;;9.32;7.35;;;13.40;99.90;;;;;;5114792;28;20506;-65
2022/05/05 01:32:40;;;;;;;9.98;7.15;;;13.40;99.90;;;;;;5115200;28;20032;-65
2022/05/05 01:35:06;;;;;;;8.47;7.40;;;13.40;99.90;;;;;;5115428;28;20031;-65
2022/05/05 01:37:32;;;;;;;10.77;7.82;;;13.40;99.90;;;;;;5115297;28;20061;-65
2022/05/05 01:39:57;;;;;;;9.82;8.30;;;13.30;99.90;;;;;;5114452;28;20151;-65
2022/05/05 01:42:23;;;;;;;8.77;7.00;;;13.30;99.90;;;;;;5096094;28;20035;-65
2022/05/05 01:44:48;;;;;;;9.60;7.40;;;13.30;99.90;;;;;;5114027;28;20149;-65
2022/05/05 01:47:14;;;;;;;8.30;6.93;;;13.30;99.90;;;;;;5096086;28;20273;-65
2022/05/05 01:49:40;;;;;;;11.50;8.40;;;13.30;99.90;;;;;;5114090;28;20364;-64
2022/05/05 01:52:09;;;;;;;10.47;7.97;;;13.30;99.90;;;;;;5114661;28;20103;-64
2022/05/05 01:54:34;;;;;;;12.65;9.15;;;13.30;99.90;;;;;;5114069;28;20020;-64
2022/05/05 01:57:00;;;;;;;12.60;8.50;;;13.40;99.90;;;;;;5113625;28;20355;-64
2022/05/05 01:59:26;;;;;;;10.48;7.45;;;13.40;99.90;;;;;;5113720;28;20031;-64
2022/05/05 02:01:52;;;;;;;15.07;10.43;;;13.30;99.90;;;;;;5095347;28;20051;-65
2022/05/05 02:04:17;;;;;;;10.00;7.68;;;13.30;99.90;;;;;;5113687;28;20079;-64
2022/05/05 02:06:43;;;;;;;11.27;8.63;;;13.30;99.90;;;;;;5113490;28;20483;-64
2022/05/05 02:09:08;;;;;;;14.53;9.47;;;13.30;99.90;;;;;;5113518;28;20073;-64
2022/05/05 02:11:37;;;;;;;12.47;10.00;;;13.40;99.90;;;;;;5095138;28;20020;-65
2022/05/05 02:14:03;;;;;;;11.02;8.68;;;13.30;99.90;;;;;;5113566;28;20487;-64
2022/05/05 02:16:29;;;;;;;13.85;11.05;;;13.20;99.90;;;;;;5113462;28;20395;-66
2022/05/05 02:18:54;;;;;;;10.40;9.30;;;13.20;99.90;;;;;;5095227;28;20035;-66
2022/05/05 02:21:20;;;;;;;13.00;8.47;;;13.20;99.90;;;;;;5113221;28;20491;-64
2022/05/05 02:23:46;;;;;;;9.82;8.13;;;13.20;99.90;;;;;;5113670;28;20044;-64
2022/05/05 02:26:11;;;;;;;12.33;8.37;;;13.20;99.90;;;;;;5095040;28;20134;-64
2022/05/05 02:28:37;;;;;;;11.53;8.97;;;13.30;99.90;;;;;;5113240;28;20066;-65
2022/05/05 02:31:03;;;;;;;9.90;8.57;;;13.30;99.90;;;;;;5113300;28;20683;-66
2022/05/05 02:33:28;;;;;;;13.97;8.80;;;13.30;99.90;;;;;;5113874;28;20454;-66
2022/05/05 02:38:44;;;;;;;11.10;9.32;;;13.30;99.90;;;;;;5114112;28;20289;-64
2022/05/05 02:41:10;;;;;;;9.85;8.10;;;13.30;99.90;;;;;;5113258;28;20076;-64
2022/05/05 02:43:36;;;;;;;8.85;7.00;;;13.30;99.90;;;;;;5113160;28;20019;-64
2022/05/05 02:46:02;;;;;;;8.17;6.87;;;13.30;99.90;;;;;;5113128;28;20030;-65
2022/05/05 02:48:27;;;;;;;9.27;7.35;;;13.30;99.90;;;;;;5095148;28;20826;-65
2022/05/05 02:50:53;;;;;;;8.70;7.80;;;13.20;99.90;;;;;;5113250;28;20099;-65
2022/05/05 02:56:02;;;;;;;10.90;8.20;;;13.30;99.90;;;;;;5113592;28;20106;-65
2022/05/05 02:58:29;;;;;;;9.40;7.30;;;13.30;99.90;;;;;;5113941;28;20047;-64
2022/05/05 03:00:55;;;;;;;8.85;7.28;;;13.30;99.90;;;;;;5112831;28;20060;-64
2022/05/05 03:03:20;;;;;;;8.00;7.03;;;13.20;99.90;;;;;;5114198;28;20026;-64
2022/05/05 03:05:46;;;;;;;12.07;7.83;;;13.20;99.90;;;;;;5113948;28;20031;-64
2022/05/05 03:08:12;;;;;;;8.25;7.07;;;13.20;99.90;;;;;;5114729;28;20035;-64
2022/05/05 03:10:38;;;;;;;8.27;7.38;;;13.30;99.90;;;;;;5117407;28;20122;-65
2022/05/05 03:13:04;;;;;;;11.65;8.13;;;13.30;99.90;;;;;;5117244;28;20584;-64
2022/05/05 03:15:30;;;;;;;9.53;8.03;;;13.40;99.90;;;;;;5116811;28;20080;-64
2022/05/05 03:17:55;;;;;;;8.80;6.97;;;13.40;99.90;;;;;;5116974;28;20051;-64
2022/05/05 03:20:21;;;;;;;8.82;7.32;;;13.40;99.90;;;;;;5116698;28;20050;-64
2022/05/05 03:22:47;;;;;;;8.88;7.50;;;13.40;99.90;;;;;;5116588;28;20089;-65
2022/05/05 03:25:12;;;;;;;10.10;7.67;;;13.30;99.90;;;;;;5116589;28;20034;-65
2022/05/05 03:27:39;;;;;;;8.13;7.30;;;13.30;99.90;;;;;;5098068;28;20115;-65
2022/05/05 03:30:06;;;;;;;9.35;7.70;;;13.30;99.90;;;;;;5098121;28;20054;-65
2022/05/05 03:32:34;;;;;;;9.13;6.82;;;13.20;99.90;;;;;;5116316;28;20503;-64
2022/05/05 03:35:00;;;;;;;10.10;7.50;;;13.20;99.90;;;;;;5116518;28;20037;-64
2022/05/05 03:37:33;;;;;;;8.88;7.38;;;13.20;99.90;;;;;;5116523;28;20032;-64
2022/05/05 03:39:58;;;;;;;9.10;7.43;;;13.10;99.90;;;;;;5116276;28;20043;-65
2022/05/05 03:42:24;;;;;;;12.45;8.25;;;13.10;99.90;;;;;;5116204;28;20388;-64
2022/05/05 03:44:50;;;;;;;10.43;7.60;;;13.10;99.90;;;;;;5097873;28;20108;-64
2022/05/05 03:47:15;;;;;;;7.75;6.97;;;13.10;99.90;;;;;;5097828;28;20015;-64
2022/05/05 03:49:41;;;;;;;13.20;7.83;;;13.10;99.90;;;;;;5115866;28;20032;-65
2022/05/05 03:52:07;;;;;;;10.70;8.10;;;13.10;99.90;;;;;;5116366;28;20626;-65
2022/05/05 03:54:33;;;;;;;10.70;8.10;;;13.10;99.90;;;;;;5117180;28;20024;-65
2022/05/05 03:56:59;;;;;;;8.83;7.40;;;13.10;99.90;;;;;;5117725;28;20026;-65
2022/05/05 03:59:24;;;;;;;9.53;7.77;;;13.00;99.90;;;;;;5115870;28;20261;-65
2022/05/05 04:01:50;;;;;;;7.90;7.10;;;13.00;99.90;;;;;;5097496;28;20472;-65
2022/05/05 04:04:17;;;;;;;10.27;7.50;;;13.00;99.90;;;;;;5115825;28;20035;-65
2022/05/05 04:06:42;;;;;;;;;;;12.90;99.90;;;;;;5116405;28;20103;-65
2022/05/05 04:09:10;;;;;;;11.63;7.63;;;12.90;99.90;;;;;;5116176;28;20360;-65
2022/05/05 04:11:36;;;;;;;9.88;7.70;;;12.90;99.90;;;;;;5097520;28;20027;-67
2022/05/05 04:14:03;;;;;;;9.43;8.25;;;12.80;99.90;;;;;;5098367;28;20016;-67
2022/05/05 04:16:31;;;;;;;11.48;8.93;;;12.90;99.90;;;;;;5117123;28;20027;-66
2022/05/05 04:19:03;;;;;;;9.18;7.60;;;12.80;99.90;;;;;;5115689;28;20035;-66
2022/05/05 04:21:29;;;;;;;11.00;8.32;;;12.80;99.90;;;;;;5115335;28;20537;-67
2022/05/05 04:23:54;;;;;;;9.27;7.60;;;12.80;99.90;;;;;;5097435;28;20031;-63
2022/05/05 04:26:21;;;;;;;9.77;8.13;;;12.80;99.90;;;;;;5115806;28;20031;-65
2022/05/05 04:28:48;;;;;;;10.25;8.48;;;12.80;99.90;;;;;;5115199;28;20059;-63
2022/05/05 04:31:17;;;;;;;10.88;7.50;;;12.80;99.90;;;;;;5115288;28;20028;-63
2022/05/05 04:33:42;;;;;;;9.57;8.43;;;12.80;99.90;;;;;;5115253;28;20108;-63
2022/05/05 04:36:10;;;;;;;14.02;8.13;;;12.80;99.90;;;;;;5115286;28;20020;-64
2022/05/05 04:38:35;;;;;;;10.52;7.93;;;12.80;99.90;;;;;;5115629;28;20067;-64
2022/05/05 04:41:02;;;;;;;17.27;8.93;;;12.90;99.90;;;;;;5115089;28;20046;-64
2022/05/05 04:43:27;;;;;;;8.10;6.60;;;12.90;99.90;;;;;;5115690;28;20023;-64
2022/05/05 04:45:53;;;;;;;9.45;7.47;;;13.00;99.90;;;;;;5096963;28;20028;-64
2022/05/05 04:48:19;;;;;;;10.17;6.90;;;13.00;99.90;;;;;;5115094;28;20102;-64
2022/05/05 04:50:44;;;;;;;10.20;7.20;;;13.00;99.90;;;;;;5114942;28;20023;-64
2022/05/05 04:53:10;;;;;;;10.17;6.83;;;13.00;99.90;;;;;;5115005;28;20257;-64
2022/05/05 04:55:36;;;;;;;11.02;7.30;;;13.00;99.90;;;;;;5114900;28;20521;-64
2022/05/05 04:58:01;;;;;;;9.10;6.57;;;13.00;99.90;;;;;;5114912;28;20098;-64
2022/05/05 05:00:27;;;;;;;9.20;7.20;;;13.00;99.90;;;;;;5114645;28;20028;-65
2022/05/05 05:02:53;;;;;;;8.10;6.82;;;13.00;99.90;;;;;;5115233;28;20343;-66
2022/05/05 05:05:19;;;;;;;7.50;6.27;;;13.10;99.90;;;;;;5114733;28;20043;-67
2022/05/05 05:07:44;;;;;;;10.68;7.18;;;13.10;99.90;;;;;;5115383;28;20261;-67
2022/05/05 05:10:10;;;;;;;9.82;6.78;;;13.20;99.90;;;;;;5115125;28;20036;-66
2022/05/05 05:12:36;;;;;;;8.32;6.82;;;13.20;99.90;;;;;;5114971;28;20022;-66
2022/05/05 05:15:01;;;;;;;11.45;7.15;;;13.20;99.90;;;;;;5115134;28;20499;-66
2022/05/05 05:17:27;;;;;;;7.97;6.43;;;13.20;99.90;;;;;;5115367;28;20019;-66
2022/05/05 05:19:53;;;;;;;9.02;7.07;;;13.30;99.90;;;;;;5115396;28;20042;-68
2022/05/05 05:22:19;;;;;;;9.30;7.85;;;13.30;99.90;;;;;;5096806;28;20039;-66
2022/05/05 05:24:45;;;;;;;22.13;12.60;;;13.30;99.90;;;;;;5115715;28;20035;-66
2022/05/05 05:27:11;;;;;;;10.10;7.63;;;13.30;99.90;;;;;;5096264;28;20035;-67
2022/05/05 05:29:36;;;;;;;9.80;7.83;;;13.30;99.90;;;;;;5112941;28;20384;-65
2022/05/05 05:32:02;;;;;;;9.43;7.70;;;13.40;99.90;;;;;;5113964;28;20264;-66
2022/05/05 05:34:28;;;;;;;17.83;8.32;;;13.30;99.90;;;;;;5095781;28;20046;-65
2022/05/05 05:36:53;;;;;;;8.80;7.90;;;13.30;99.90;;;;;;5095804;28;20488;-65
2022/05/05 05:39:19;;;;;;;10.65;7.15;;;13.30;99.90;;;;;;5114532;28;20024;-67
2022/05/05 05:41:45;;;;;;;11.73;7.83;;;13.30;99.90;;;;;;5095788;28;20062;-66
2022/05/05 05:44:11;;;;;;;8.88;7.70;;;13.40;99.90;;;;;;5096129;28;20691;-66
2022/05/05 05:46:37;;;;;;;9.48;7.82;;;13.40;99.90;;;;;;5114099;28;20127;-66
2022/05/05 05:49:04;;;;;;;10.32;7.25;;;13.40;99.90;;;;;;5113849;28;20424;-65
2022/05/05 05:51:29;;;;;;;9.10;7.57;;;13.40;99.90;;;;;;5113848;28;20106;-66
2022/05/05 05:53:55;;;;;;;8.60;7.40;;;13.50;99.90;;;;;;5113768;28;20085;-65
2022/05/05 05:56:20;;;;;;;10.10;7.40;;;13.50;99.90;;;;;;5113911;28;20257;-65
2022/05/05 05:58:46;;;;;;;11.63;8.10;;;13.50;99.90;;;;;;5113769;28;20269;-66
2022/05/05 06:01:12;;;;;;;18.83;7.73;;;13.50;99.90;;;;;;5095366;28;20035;-65
2022/05/05 06:03:56;;;;;;;12.45;9.05;;;13.50;99.90;;;;;;5113665;28;20671;-66
2022/05/05 06:06:23;;;;;;;10.95;8.10;;;13.50;99.90;;;;;;5095011;28;20054;-65
2022/05/05 06:08:50;;;;;;;10.48;8.10;;;13.50;99.90;;;;;;5095179;28;20027;-66
2022/05/05 06:11:17;;;;;;;12.27;7.72;;;13.50;99.90;;;;;;5113588;28;20102;-66
2022/05/05 06:13:43;;;;;;;10.73;8.00;;;13.60;99.90;;;;;;5096332;28;20031;-65
2022/05/05 06:16:10;;;;;;;11.45;8.00;;;13.50;99.90;;;;;;5113927;28;20042;-66
2022/05/05 06:18:39;;;;;;;15.93;7.95;;;13.50;99.90;;;;;;5113836;28;20135;-65
2022/05/05 06:21:05;;;;;;;10.23;7.53;;;13.50;99.90;;;;;;5090460;22;20061;-67
2022/05/05 06:23:31;;;;;;;12.13;7.72;;;13.50;99.90;;;;;;5053363;28;20104;-67
2022/05/05 06:25:57;;;;;;;12.27;8.20;;;13.50;99.90;;;;;;5053273;28;20032;-67
2022/05/05 06:28:22;;;;;;;12.55;8.40;;;13.60;99.90;;;;;;5053111;28;20504;-67
2022/05/05 06:30:48;;;;;;;14.47;8.73;;;13.60;99.90;;;;;;5053817;28;20036;-66
2022/05/05 06:33:13;;;;;;;12.07;8.53;;;13.60;99.90;;;;;;5069882;28;20064;-66
2022/05/05 06:35:39;;;;;;;15.43;8.48;;;13.70;99.90;;;;;;5053765;28;20267;-67
2022/05/05 06:38:05;;;;;;;13.40;8.57;;;13.70;99.90;;;;;;5054239;28;20478;-67
2022/05/05 06:40:31;;;;;;;12.40;8.18;;;13.70;99.90;;;;;;5052887;28;20090;-66
2022/05/05 06:42:56;;;;;;;10.70;9.03;;;13.70;99.90;;;;;;5055101;28;20091;-66
2022/05/05 06:45:22;;;;;;;11.02;8.65;;;13.60;99.90;;;;;;5056193;28;20087;-67
2022/05/05 06:47:48;;;;;;;13.13;10.00;;;13.70;99.90;;;;;;5057851;28;20029;-67
2022/05/05 06:50:16;;;;;;;10.48;8.43;;;13.60;99.90;;;;;;5058107;28;20029;-67
2022/05/05 06:52:42;;;;;;;11.63;9.02;;;13.60;99.90;;;;;;5058089;28;20052;-67
2022/05/05 06:55:09;;;;;;;12.23;8.75;;;13.80;99.90;;;;;;5057309;28;20029;-67
2022/05/05 06:57:34;;;;;;;11.35;9.35;;;13.90;99.90;;;;;;5057749;28;20029;-67
2022/05/05 07:00:00;;;;;;;12.77;9.67;;;13.80;99.90;;;;;;5057802;28;20175;-72
2022/05/05 07:02:26;;;;;;;13.60;9.15;;;14.00;99.90;;;;;;5057271;28;20174;-68
2022/05/05 07:07:35;;;;;;;13.73;10.18;;;14.00;99.90;;;;;;5058680;28;20168;-67
2022/05/05 07:12:45;;;;;;;12.40;10.65;;;13.80;99.90;;;;;;5057858;28;20754;-67
2022/05/05 07:15:12;;;;;;;14.90;10.23;;;13.80;99.90;;;;;;5057104;28;20025;-68
2022/05/05 07:17:38;;;;;;;14.95;10.43;;;13.80;99.90;;;;;;5055634;28;20017;-67
2022/05/05 07:20:03;;;;;;;16.95;10.40;;;13.90;99.90;;;;;;5057255;28;20449;-67
2022/05/05 07:22:29;;;;;;;15.13;11.52;;;13.90;99.90;;;;;;5057201;28;20029;-66
2022/05/05 07:24:55;;;;;;;18.73;11.40;;;14.10;99.90;;;;;;5072525;28;20052;-69
2022/05/05 07:27:21;;;;;;;17.80;11.95;;;14.00;99.90;;;;;;5056620;28;20436;-68
2022/05/05 07:29:46;;;;;;;13.65;10.90;;;14.10;99.90;;;;;;5071700;28;20040;-67
2022/05/05 07:32:12;;;;;;;23.98;12.18;;;14.20;99.90;;;;;;5057053;28;20076;-68
2022/05/05 07:34:39;;;;;;;16.40;11.43;;;14.20;99.90;;;;;;5056731;28;20369;-68
2022/05/05 07:37:06;;;;;;;16.40;10.63;;;14.20;99.90;;;;;;5057975;28;20267;-67
2022/05/05 07:39:31;;;;;;;19.00;11.38;;;14.20;99.90;;;;;;5056658;28;20556;-68
2022/05/05 07:41:57;;;;;;;15.77;11.10;;;14.20;99.90;;;;;;5057092;28;20075;-68
2022/05/05 07:44:23;;;;;;;18.87;12.13;;;14.20;99.90;;;;;;5055252;28;20271;-67
2022/05/05 07:46:48;;;;;;;15.70;12.60;;;14.20;99.90;;;;;;5057070;28;20061;-68
2022/05/05 07:49:14;;;;;;;18.23;11.93;;;14.20;99.90;;;;;;5057496;28;20493;-68
2022/05/05 07:51:40;;;;;;;21.05;12.98;;;14.30;99.90;;;;;;5056915;28;20125;-68
2022/05/05 07:56:53;;;;;;;18.58;13.45;;;14.20;99.90;;;;;;5056514;28;20083;-67
2022/05/05 07:59:19;;;;;;;19.15;13.90;;;14.10;99.90;;;;;;5054491;28;20028;-69
2022/05/05 08:01:45;;;;;;;;;;;14.10;99.90;;;;;;5056488;28;20031;-68
2022/05/05 08:04:11;;;;;;;21.20;13.77;;;14.00;99.90;;;;;;5070507;28;19999;-68
2022/05/05 08:06:36;;;;;;;20.00;13.93;;;13.90;99.90;;;;;;5055265;28;20056;-68
2022/05/05 08:09:02;;;;;;;24.23;15.20;;;13.90;99.90;;;;;;5055996;28;20032;-68
2022/05/05 08:11:28;;;;;;;19.73;13.50;;;13.90;99.90;;;;;;5057356;28;20120;-68
2022/05/05 08:13:54;;;;;;;21.10;14.65;;;14.00;99.90;;;;;;5057212;28;20088;-68
2022/05/05 08:16:20;;;;;;;20.42;14.85;;;14.00;99.90;;;;;;5055304;28;20388;-68
2022/05/05 08:18:46;;;;;;;20.98;16.00;;;13.90;99.90;;;;;;5056327;28;20037;-69
2022/05/05 08:21:12;;;;;;;23.75;15.65;;;13.90;99.90;;;;;;5054719;28;20033;-68
2022/05/05 08:23:38;;;;;;;19.48;15.00;;;13.90;99.90;;;;;;5055916;28;20025;-68
2022/05/05 08:28:49;;;;;;;20.65;14.60;;;13.90;99.90;;;;;;5056250;28;20044;-69
2022/05/05 08:31:15;;;;;;;;;;;13.90;99.90;;;;;;5056229;28;20027;-69
2022/05/05 08:33:40;;;;;;;25.83;16.00;;;13.90;99.90;;;;;;5056263;28;19960;-69
2022/05/05 08:36:07;;;;;;;22.97;15.50;;;13.90;99.90;;;;;;5055839;28;20021;-70
2022/05/05 08:38:33;;;;;;;26.33;17.40;;;13.90;99.90;;;;;;5055867;28;20290;-70
2022/05/05 08:40:59;;;;;;;25.58;18.10;;;13.90;99.90;;;;;;5056042;28;20075;-68
2022/05/05 08:43:25;;;;;;;25.50;16.85;;;13.80;99.90;;;;;;5055286;28;20033;-70
2022/05/05 08:45:53;;;;;;;27.00;17.20;;;13.80;99.90;;;;;;5069760;28;20079;-69
2022/05/05 08:48:19;;;;;;;24.98;17.55;;;13.80;99.90;;;;;;5054509;28;20021;-69
2022/05/05 08:50:49;;;;;;;29.52;19.95;;;13.70;99.90;;;;;;5054572;28;20431;-69
2022/05/05 08:53:16;;;;;;;24.45;17.50;;;13.70;99.90;;;;;;5053347;28;20092;-69
2022/05/05 08:55:44;;;;;;;24.52;17.55;;;13.70;99.90;;;;;;5054945;28;20017;-69
2022/05/05 08:58:10;;;;;;;26.20;18.73;;;13.70;99.90;;;;;;5054429;28;20076;-69
2022/05/05 09:00:36;;;;;;;26.63;17.38;;;13.60;99.90;;;;;;5053295;28;20048;-70
2022/05/05 09:03:04;;;;;;;26.92;18.23;;;13.60;99.90;;;;;;5054405;28;20040;-70
2022/05/05 09:05:42;;;;;;;29.00;20.13;;;13.50;99.90;;;;;;5070037;28;20025;-70
2022/05/05 09:08:10;;;;;;;26.27;18.77;;;13.30;99.90;;;;;;5053020;28;20143;-69
2022/05/05 09:10:44;;;;;;;29.70;20.67;;;13.20;99.90;;;;;;5053827;28;20052;-69
2022/05/05 09:13:11;;;;;;;25.52;18.98;;;13.30;99.90;;;;;;5053928;28;20065;-69
2022/05/05 09:15:40;;;;;;;32.08;21.38;;;13.20;99.90;;;;;;5061613;28;20028;-68
2022/05/05 09:18:19;;;;;;;29.88;19.92;;;13.20;99.90;;;;;;5068206;28;20075;-68
2022/05/05 09:20:46;;;;;;;27.25;19.92;;;13.10;99.90;;;;;;5060580;28;20401;-67
2022/05/05 09:23:29;;;;;;;26.25;19.45;;;13.10;99.90;;;;;;5075123;28;20025;-69
2022/05/05 09:25:55;;;;;;;30.58;20.20;;;13.10;99.90;;;;;;5059043;28;20021;-69
2022/05/05 09:28:24;;;;;;;30.77;21.42;;;13.00;99.90;;;;;;5060433;28;20390;-68
2022/05/05 09:30:52;;;;;;;28.85;20.45;;;13.00;99.90;;;;;;5061690;28;20029;-68
2022/05/05 09:33:36;;;;;;;29.25;19.65;;;13.00;99.90;;;;;;5056823;28;20029;-66
2022/05/05 09:36:16;;;;;;;28.73;19.15;;;13.00;99.90;;;;;;5052866;28;20017;-68
2022/05/05 09:38:51;;;;;;;28.85;19.40;;;12.90;99.90;;;;;;5054075;28;20373;-67
2022/05/05 09:41:18;;;;;;;28.98;18.42;;;12.90;99.90;;;;;;5055911;28;20029;-68
2022/05/05 09:43:44;;;;;;;28.40;17.35;;;12.90;99.90;;;;;;5052346;28;20035;-68
2022/05/05 09:46:28;;;;;;;31.57;17.90;;;12.90;99.90;;;;;;5053635;28;20404;-68
2022/05/05 09:49:11;;;;;;;28.55;16.98;;;12.90;99.90;;;;;;5053608;28;20025;-70
2022/05/05 09:51:40;;;;;;;24.52;15.57;;;12.90;99.90;;;;;;5053583;28;20025;-66
2022/05/05 09:59:42;;;;;;;23.05;15.05;;;13.10;99.90;;;;;;5055245;28;20035;-68
2022/05/05 10:02:17;;;;;;;27.88;15.07;;;13.10;99.90;;;;;;5053605;28;20029;-68
2022/05/05 10:04:50;;;;;;;26.67;14.95;;;13.10;99.90;;;;;;5055301;28;20401;-68
2022/05/05 10:07:20;;;;;;;21.48;14.55;;;13.30;99.90;;;;;;5054532;28;20362;-68
2022/05/05 10:09:49;;;;;;;22.13;14.98;;;13.30;99.90;;;;;;5068844;28;20114;-68
2022/05/05 10:12:16;;;;;;;29.08;17.23;;;13.20;99.90;;;;;;5053283;28;20112;-70
2022/05/05 10:14:43;;;;;;;19.52;14.57;;;13.20;99.90;;;;;;5053569;28;20086;-67
2022/05/05 10:17:11;;;;;;;26.33;15.07;;;13.20;99.90;;;;;;5068837;28;20477;-67
2022/05/05 10:19:37;;;;;;;25.30;15.98;;;13.20;99.90;;;;;;5053118;28;20029;-67
2022/05/05 10:22:11;;;;;;;23.45;16.48;;;13.20;99.90;;;;;;5051963;28;20029;-67
2022/05/05 10:24:46;;;;;;;26.27;15.43;;;13.10;99.90;;;;;;5053444;28;20087;-68
2022/05/05 10:27:11;;;;;;;20.40;15.13;;;13.10;99.90;;;;;;5053303;28;20504;-68
2022/05/05 10:29:40;;;;;;;24.52;15.23;;;13.10;99.90;;;;;;5053199;28;20056;-69
2022/05/05 10:32:11;;;;;;;24.25;14.80;;;13.30;99.90;;;;;;5053143;28;20029;-67
2022/05/05 10:34:41;;;;;;;27.92;15.82;;;13.30;99.90;;;;;;5052479;28;20495;-68
2022/05/05 10:37:17;;;;;;;25.73;15.77;;;13.30;99.90;;;;;;5053281;28;20022;-68
2022/05/05 10:40:01;;;;;;;24.53;15.20;;;13.30;99.90;;;;;;5059576;28;20178;-68
2022/05/05 10:42:30;;;;;;;21.95;15.70;;;13.40;99.90;;;;;;5058467;28;20025;-68
2022/05/05 10:45:22;;;;;;;22.45;15.50;;;13.40;99.90;;;;;;5051808;28;20500;-69
2022/05/05 10:48:04;;;;;;;24.80;15.43;;;13.40;99.90;;;;;;5053565;28;20099;-68
2022/05/05 10:51:02;;;;;;;23.63;14.27;;;13.40;99.90;;;;;;5053442;28;20041;-68
2022/05/05 10:53:40;;;;;;;26.52;15.07;;;13.40;99.90;;;;;;5053284;28;20017;-68
2022/05/05 10:56:27;;;;;;;27.98;16.58;;;13.50;99.90;;;;;;5051452;28;20055;-69
2022/05/05 10:59:03;;;;;;;31.08;18.65;;;13.50;99.90;;;;;;5053239;28;20103;-68
2022/05/05 11:01:32;;;;;;;28.33;18.20;;;13.60;99.90;;;;;;5051952;28;20036;-68
2022/05/05 11:04:04;;;;;;;27.85;18.85;;;13.60;99.90;;;;;;5052753;28;20256;-68
2022/05/05 11:06:30;;;;;;;40.88;19.70;;;13.60;99.90;;;;;;5051210;28;20025;-68
2022/05/05 11:08:56;;;;;;;32.42;20.95;;;13.70;99.90;;;;;;5052617;28;20593;-67
2022/05/05 11:11:40;;;;;;;35.17;20.47;;;13.60;99.90;;;;;;5051609;28;20053;-68
2022/05/05 11:22:46;;;;;;;32.78;19.67;;;13.50;99.90;;;;;;5052682;28;20074;-67
2022/05/05 11:25:11;;;;;;;44.13;25.30;;;13.40;99.90;;;;;;5052622;28;20103;-68
2022/05/05 11:27:37;;;;;;;28.00;19.08;;;13.40;99.90;;;;;;5052318;28;20293;-68
2022/05/05 11:30:04;;;;;;;34.80;18.48;;;13.40;99.90;;;;;;5070386;28;20120;-68
2022/05/05 11:32:30;;;;;;;;;;;13.50;99.90;;;;;;5056593;28;20035;-68
2022/05/05 11:34:56;;;;;;;27.50;16.38;;;13.40;99.90;;;;;;5071789;28;19952;-69
2022/05/05 11:37:26;;;;;;;26.42;17.17;;;13.40;99.90;;;;;;5056363;28;20075;-68
2022/05/05 11:39:51;;;;;;;27.08;17.08;;;13.40;99.90;;;;;;5055980;28;20025;-68
2022/05/05 11:42:18;;;;;;;23.57;16.27;;;13.30;99.90;;;;;;5056337;28;20033;-68
2022/05/05 11:44:45;;;;;;;23.92;17.08;;;13.30;99.90;;;;;;5056026;28;20268;-68
2022/05/05 11:47:13;;;;;;;24.45;15.00;;;13.30;99.90;;;;;;5055071;28;20028;-68
2022/05/05 11:49:39;;;;;;;26.63;15.98;;;13.40;99.90;;;;;;5055746;28;20093;-68
2022/05/05 11:52:06;;;;;;;24.45;14.82;;;13.40;99.90;;;;;;5056290;28;20116;-67
2022/05/05 11:54:32;;;;;;;;;;;13.50;99.90;;;;;;5071405;28;20025;-68
2022/05/05 11:56:59;;;;;;;23.10;14.82;;;13.60;99.90;;;;;;5071071;28;19905;-68
2022/05/05 12:02:16;;;;;;;25.00;14.75;;;13.80;99.90;;;;;;5055597;28;20044;-66
2022/05/05 12:04:46;;;;;;;21.98;14.95;;;14.00;99.90;;;;;;5054977;28;20080;-65
2022/05/05 12:07:20;;;;;;;20.92;14.30;;;14.10;99.90;;;;;;5055440;28;20017;-67
2022/05/05 12:09:58;;;;;;;20.65;13.45;;;14.20;99.90;;;;;;5054319;28;20437;-67
2022/05/05 12:12:26;;;;;;;22.02;14.23;;;14.10;99.90;;;;;;5056033;28;20359;-68
2022/05/05 12:14:55;;;;;;;24.02;14.07;;;14.20;99.90;;;;;;5055834;28;20462;-69
2022/05/05 12:17:27;;;;;;;24.23;15.30;;;14.30;99.90;;;;;;5054635;28;20497;-68
2022/05/05 12:19:55;;;;;;;22.10;14.70;;;14.40;99.90;;;;;;5053671;28;20481;-69
2022/05/05 12:22:33;;;;;;;21.85;14.25;;;14.50;99.90;;;;;;5078803;22;20047;-66
2022/05/05 12:25:16;;;;;;;23.88;13.63;;;14.50;99.90;;;;;;5036969;28;20021;-66
2022/05/05 12:27:41;;;;;;;24.60;14.02;;;14.60;99.90;;;;;;5054919;28;20032;-65
2022/05/05 12:30:08;;;;;;;19.43;13.80;;;14.70;99.90;;;;;;5054998;28;20029;-66
2022/05/05 12:32:34;;;;;;;21.17;15.00;;;14.80;99.90;;;;;;5034934;28;20044;-66
2022/05/05 12:35:10;;;;;;;26.17;16.35;;;15.00;99.90;;;;;;5034952;28;20482;-64
2022/05/05 12:37:36;;;;;;;22.20;15.38;;;15.00;99.90;;;;;;5016954;28;20363;-65
2022/05/05 12:40:04;;;;;;;22.75;15.52;;;15.10;99.90;;;;;;5034472;28;20052;-65
2022/05/05 12:42:39;;;;;;;22.23;13.75;;;15.10;99.90;;;;;;5034077;28;20029;-65
2022/05/05 12:45:13;;;;;;;23.27;15.10;;;15.20;99.90;;;;;;5016767;28;20045;-66
2022/05/05 12:47:43;;;;;;;22.33;16.23;;;15.30;99.90;;;;;;5034618;28;20030;-66
2022/05/05 12:50:27;;;;;;;23.50;15.57;;;15.40;99.90;;;;;;5034228;28;20025;-66
2022/05/05 13:01:05;;;;;;;27.20;14.95;;;16.00;99.90;;;;;;5034322;28;20027;-66
2022/05/05 13:03:30;;;;;;;21.27;14.20;;;16.10;99.90;;;;;;5033753;28;20142;-64
2022/05/05 13:05:57;;;;;;;21.23;14.17;;;16.20;99.90;;;;;;5033985;28;20253;-65
2022/05/05 13:08:23;;;;;;;20.20;14.43;;;16.10;99.90;;;;;;5034576;28;20025;-65
2022/05/05 13:10:48;;;;;;;19.00;13.20;;;16.20;99.90;;;;;;5034365;28;20025;-67
2022/05/05 13:13:14;;;;;;;21.13;14.52;;;16.30;99.90;;;;;;5034556;28;20336;-66
2022/05/05 13:15:42;;;;;;;20.92;14.00;;;16.60;99.90;;;;;;5034697;28;20036;-66
2022/05/05 13:18:08;;;;;;;20.15;14.88;;;16.60;99.90;;;;;;5033674;28;20049;-66
2022/05/05 13:20:34;;;;;;;20.63;14.55;;;16.60;99.90;;;;;;5033491;28;20101;-66
2022/05/05 13:23:00;;;;;;;16.60;13.23;;;16.60;99.90;;;;;;5033908;28;20493;-65
2022/05/05 13:25:26;;;;;;;;;;;16.60;99.90;;;;;;5034197;28;20382;-68
2022/05/05 13:27:52;;;;;;;20.40;12.90;;;16.60;99.90;;;;;;5033640;28;20043;-68
2022/05/05 13:30:18;;;;;;;19.00;13.20;;;16.60;99.90;;;;;;5016058;28;20037;-65